sensor_id;sensor_type;location;lat;lon;timestamp;temperature;humidity
5924;DHT22;2987;50.884;14.818;2023-04-03T00:00:57;2.40;99.90
5924;DHT22;2987;50.884;14.818;2023-04-03T00:03:23;2.40;99.90
5924;DHT22;2987;50.884;14.818;2023-04-03T00:05:50;2.20;99.90
5924;DHT22;2987;50.884;14.818;2023-04-03T00:08:17;2.10;99.90
5924;DHT22;2987;50.884;14.818;2023-04-03T00:10:43;2.10;99.90
5924;DHT22;2987;50.884;14.818;2023-04-03T00:13:12;2.20;99.90
5924;DHT22;2987;50.884;14.818;2023-04-03T00:15:41;2.00;99.90
5924;DHT22;2987;50.884;14.818;2023-04-03T00:18:08;2.20;99.90
5924;DHT22;2987;50.884;14.818;2023-04-03T00:20:34;1.90;99.90
5924;DHT22;2987;50.884;14.818;2023-04-03T00:23:01;2.20;99.90
5924;DHT22;2987;50.884;14.818;2023-04-03T00:25:27;1.90;99.90
5924;DHT22;2987;50.884;14.818;2023-04-03T00:27:53;2.20;99.90
5924;DHT22;2987;50.884;14.818;2023-04-03T00:30:22;1.80;99.90
5924;DHT22;2987;50.884;14.818;2023-04-03T00:32:49;1.60;99.90
5924;DHT22;2987;50.884;14.818;2023-04-03T00:35:16;1.90;99.90
5924;DHT22;2987;50.884;14.818;2023-04-03T00:37:43;1.90;99.90
5924;DHT22;2987;50.884;14.818;2023-04-03T00:40:11;1.90;99.90
5924;DHT22;2987;50.884;14.818;2023-04-03T00:42:40;2.00;99.90
5924;DHT22;2987;50.884;14.818;2023-04-03T00:45:22;2.00;99.90
5924;DHT22;2987;50.884;14.818;2023-04-03T00:47:49;1.90;99.90
5924;DHT22;2987;50.884;14.818;2023-04-03T00:50:16;1.90;99.90
5924;DHT22;2987;50.884;14.818;2023-04-03T00:52:42;1.90;99.90
5924;DHT22;2987;50.884;14.818;2023-04-03T00:55:09;1.90;99.90
5924;DHT22;2987;50.884;14.818;2023-04-03T00:57:36;1.90;99.90
5924;DHT22;2987;50.884;14.818;2023-04-03T01:00:11;1.40;99.90
5924;DHT22;2987;50.884;14.818;2023-04-03T01:02:38;1.60;99.90
5924;DHT22;2987;50.884;14.818;2023-04-03T01:05:08;1.70;99.90
5924;DHT22;2987;50.884;14.818;2023-04-03T01:07:36;1.70;99.90
5924;DHT22;2987;50.884;14.818;2023-04-03T01:10:07;1.60;99.90
5924;DHT22;2987;50.884;14.818;2023-04-03T01:12:37;1.30;99.90
5924;DHT22;2987;50.884;14.818;2023-04-03T01:15:09;1.10;99.90
5924;DHT22;2987;50.884;14.818;2023-04-03T01:17:46;1.40;99.90
5924;DHT22;2987;50.884;14.818;2023-04-03T01:20:45;1.10;99.90
5924;DHT22;2987;50.884;14.818;2023-04-03T01:25:58;1.40;99.90
5924;DHT22;2987;50.884;14.818;2023-04-03T01:28:26;1.10;99.90
5924;DHT22;2987;50.884;14.818;2023-04-03T01:31:32;1.00;99.90
5924;DHT22;2987;50.884;14.818;2023-04-03T01:33:59;0.90;99.90
5924;DHT22;2987;50.884;14.818;2023-04-03T01:36:29;0.90;99.90
5924;DHT22;2987;50.884;14.818;2023-04-03T01:38:58;0.90;99.90
5924;DHT22;2987;50.884;14.818;2023-04-03T01:41:26;0.90;99.90
5924;DHT22;2987;50.884;14.818;2023-04-03T01:43:56;0.90;99.90
5924;DHT22;2987;50.884;14.818;2023-04-03T01:46:22;0.90;99.90
5924;DHT22;2987;50.884;14.818;2023-04-03T01:48:49;0.90;99.90
5924;DHT22;2987;50.884;14.818;2023-04-03T01:51:16;0.90;99.90
5924;DHT22;2987;50.884;14.818;2023-04-03T01:53:42;0.70;99.90
5924;DHT22;2987;50.884;14.818;2023-04-03T01:56:09;0.70;99.90
5924;DHT22;2987;50.884;14.818;2023-04-03T01:58:35;0.60;99.90
5924;DHT22;2987;50.884;14.818;2023-04-03T02:01:02;0.60;99.90
5924;DHT22;2987;50.884;14.818;2023-04-03T02:03:29;0.70;99.90
5924;DHT22;2987;50.884;14.818;2023-04-03T02:05:55;0.80;99.90
5924;DHT22;2987;50.884;14.818;2023-04-03T02:08:21;0.60;99.90
5924;DHT22;2987;50.884;14.818;2023-04-03T02:10:48;0.60;99.90
5924;DHT22;2987;50.884;14.818;2023-04-03T02:13:15;0.40;99.90
5924;DHT22;2987;50.884;14.818;2023-04-03T02:15:41;0.90;99.90
5924;DHT22;2987;50.884;14.818;2023-04-03T02:18:08;0.40;99.90
5924;DHT22;2987;50.884;14.818;2023-04-03T02:20:34;0.80;99.90
5924;DHT22;2987;50.884;14.818;2023-04-03T02:23:01;0.50;99.90
5924;DHT22;2987;50.884;14.818;2023-04-03T02:25:28;0.40;99.90
5924;DHT22;2987;50.884;14.818;2023-04-03T02:27:54;0.40;99.90
5924;DHT22;2987;50.884;14.818;2023-04-03T02:30:20;0.90;99.90
5924;DHT22;2987;50.884;14.818;2023-04-03T02:32:46;0.70;99.90
5924;DHT22;2987;50.884;14.818;2023-04-03T02:35:13;0.70;99.90
5924;DHT22;2987;50.884;14.818;2023-04-03T02:37:40;0.80;99.90
5924;DHT22;2987;50.884;14.818;2023-04-03T02:40:07;0.40;99.90
5924;DHT22;2987;50.884;14.818;2023-04-03T02:42:34;0.40;99.90
5924;DHT22;2987;50.884;14.818;2023-04-03T02:45:02;0.40;99.90
5924;DHT22;2987;50.884;14.818;2023-04-03T02:47:29;0.40;99.90
5924;DHT22;2987;50.884;14.818;2023-04-03T02:49:55;0.40;99.90
5924;DHT22;2987;50.884;14.818;2023-04-03T02:52:21;0.40;99.90
5924;DHT22;2987;50.884;14.818;2023-04-03T02:54:48;0.30;99.90
5924;DHT22;2987;50.884;14.818;2023-04-03T02:57:15;0.70;99.90
5924;DHT22;2987;50.884;14.818;2023-04-03T02:59:41;0.30;99.90
5924;DHT22;2987;50.884;14.818;2023-04-03T03:02:09;0.10;99.90
5924;DHT22;2987;50.884;14.818;2023-04-03T03:04:36;0.20;99.90
5924;DHT22;2987;50.884;14.818;2023-04-03T03:07:03;0.20;99.90
5924;DHT22;2987;50.884;14.818;2023-04-03T03:09:29;0.20;99.90
5924;DHT22;2987;50.884;14.818;2023-04-03T03:11:56;0.20;99.90
5924;DHT22;2987;50.884;14.818;2023-04-03T03:14:23;0.20;99.90
5924;DHT22;2987;50.884;14.818;2023-04-03T03:16:49;0.20;99.90
5924;DHT22;2987;50.884;14.818;2023-04-03T03:19:16;0.20;99.90
5924;DHT22;2987;50.884;14.818;2023-04-03T03:21:42;0.10;99.90
5924;DHT22;2987;50.884;14.818;2023-04-03T03:24:08;0.20;99.90
5924;DHT22;2987;50.884;14.818;2023-04-03T03:26:35;0.20;99.90
5924;DHT22;2987;50.884;14.818;2023-04-03T03:29:02;0.20;99.90
5924;DHT22;2987;50.884;14.818;2023-04-03T03:31:29;0.20;99.90
5924;DHT22;2987;50.884;14.818;2023-04-03T03:33:56;0.20;99.90
5924;DHT22;2987;50.884;14.818;2023-04-03T03:36:23;0.20;99.90
5924;DHT22;2987;50.884;14.818;2023-04-03T03:38:49;0.20;99.90
5924;DHT22;2987;50.884;14.818;2023-04-03T03:41:15;0.20;99.90
5924;DHT22;2987;50.884;14.818;2023-04-03T03:43:43;0.40;99.90
5924;DHT22;2987;50.884;14.818;2023-04-03T03:46:12;0.40;99.90
5924;DHT22;2987;50.884;14.818;2023-04-03T03:48:38;0.40;99.90
5924;DHT22;2987;50.884;14.818;2023-04-03T03:51:04;0.40;99.90
5924;DHT22;2987;50.884;14.818;2023-04-03T03:53:34;0.40;99.90
5924;DHT22;2987;50.884;14.818;2023-04-03T03:56:05;0.40;99.90
5924;DHT22;2987;50.884;14.818;2023-04-03T03:58:34;0.40;99.90
5924;DHT22;2987;50.884;14.818;2023-04-03T04:01:04;0.40;99.90
5924;DHT22;2987;50.884;14.818;2023-04-03T04:03:33;0.40;99.90
5924;DHT22;2987;50.884;14.818;2023-04-03T04:05:59;0.40;99.90
5924;DHT22;2987;50.884;14.818;2023-04-03T04:08:25;0.40;99.90
5924;DHT22;2987;50.884;14.818;2023-04-03T04:10:52;0.40;99.90
5924;DHT22;2987;50.884;14.818;2023-04-03T04:13:19;0.40;99.90
5924;DHT22;2987;50.884;14.818;2023-04-03T04:15:46;0.40;99.90
5924;DHT22;2987;50.884;14.818;2023-04-03T04:18:14;0.30;99.90
5924;DHT22;2987;50.884;14.818;2023-04-03T04:20:45;0.60;99.90
5924;DHT22;2987;50.884;14.818;2023-04-03T04:23:12;0.40;99.90
5924;DHT22;2987;50.884;14.818;2023-04-03T04:25:38;0.40;99.90
5924;DHT22;2987;50.884;14.818;2023-04-03T04:28:05;0.40;99.90
5924;DHT22;2987;50.884;14.818;2023-04-03T04:30:32;0.40;99.90
5924;DHT22;2987;50.884;14.818;2023-04-03T04:32:58;0.40;99.90
5924;DHT22;2987;50.884;14.818;2023-04-03T04:35:25;0.40;99.90
5924;DHT22;2987;50.884;14.818;2023-04-03T04:37:52;0.40;99.90
5924;DHT22;2987;50.884;14.818;2023-04-03T04:40:18;0.40;99.90
5924;DHT22;2987;50.884;14.818;2023-04-03T04:42:46;0.40;99.90
5924;DHT22;2987;50.884;14.818;2023-04-03T04:45:12;0.40;99.90
5924;DHT22;2987;50.884;14.818;2023-04-03T04:47:40;0.40;99.90
5924;DHT22;2987;50.884;14.818;2023-04-03T04:50:07;0.40;99.90
5924;DHT22;2987;50.884;14.818;2023-04-03T04:52:34;0.40;99.90
5924;DHT22;2987;50.884;14.818;2023-04-03T04:55:00;0.40;99.90
5924;DHT22;2987;50.884;14.818;2023-04-03T04:57:26;0.40;99.90
5924;DHT22;2987;50.884;14.818;2023-04-03T04:59:53;0.40;99.90
5924;DHT22;2987;50.884;14.818;2023-04-03T05:02:19;0.40;99.90
5924;DHT22;2987;50.884;14.818;2023-04-03T05:04:45;0.40;99.90
5924;DHT22;2987;50.884;14.818;2023-04-03T05:07:18;0.40;99.90
5924;DHT22;2987;50.884;14.818;2023-04-03T05:09:44;0.40;99.90
5924;DHT22;2987;50.884;14.818;2023-04-03T05:12:13;0.40;99.90
5924;DHT22;2987;50.884;14.818;2023-04-03T05:14:45;0.40;99.90
5924;DHT22;2987;50.884;14.818;2023-04-03T05:17:11;0.40;99.90
5924;DHT22;2987;50.884;14.818;2023-04-03T05:19:41;0.40;99.90
5924;DHT22;2987;50.884;14.818;2023-04-03T05:22:08;0.40;99.90
5924;DHT22;2987;50.884;14.818;2023-04-03T05:24:35;0.40;99.90
5924;DHT22;2987;50.884;14.818;2023-04-03T05:27:03;0.40;99.90
5924;DHT22;2987;50.884;14.818;2023-04-03T05:29:30;0.40;99.90
5924;DHT22;2987;50.884;14.818;2023-04-03T05:31:59;0.20;99.90
5924;DHT22;2987;50.884;14.818;2023-04-03T05:34:25;0.40;99.90
5924;DHT22;2987;50.884;14.818;2023-04-03T05:36:53;0.20;99.90
5924;DHT22;2987;50.884;14.818;2023-04-03T05:39:21;0.40;99.90
5924;DHT22;2987;50.884;14.818;2023-04-03T05:41:48;0.20;99.90
5924;DHT22;2987;50.884;14.818;2023-04-03T05:44:15;0.20;99.90
5924;DHT22;2987;50.884;14.818;2023-04-03T05:46:44;0.30;99.90
5924;DHT22;2987;50.884;14.818;2023-04-03T05:49:11;0.10;99.90
5924;DHT22;2987;50.884;14.818;2023-04-03T05:51:39;0.20;99.90
5924;DHT22;2987;50.884;14.818;2023-04-03T05:54:16;0.20;99.90
5924;DHT22;2987;50.884;14.818;2023-04-03T05:56:44;0.20;99.90
5924;DHT22;2987;50.884;14.818;2023-04-03T05:59:10;0.20;99.90
5924;DHT22;2987;50.884;14.818;2023-04-03T06:01:37;0.20;99.90
5924;DHT22;2987;50.884;14.818;2023-04-03T06:04:03;0.40;99.90
5924;DHT22;2987;50.884;14.818;2023-04-03T06:06:52;0.30;99.90
5924;DHT22;2987;50.884;14.818;2023-04-03T06:11:45;0.20;99.90
5924;DHT22;2987;50.884;14.818;2023-04-03T06:14:12;0.40;99.90
5924;DHT22;2987;50.884;14.818;2023-04-03T06:16:39;0.40;99.90
5924;DHT22;2987;50.884;14.818;2023-04-03T06:19:08;0.40;99.90
5924;DHT22;2987;50.884;14.818;2023-04-03T06:21:35;0.40;99.90
5924;DHT22;2987;50.884;14.818;2023-04-03T06:24:04;0.40;99.90
5924;DHT22;2987;50.884;14.818;2023-04-03T06:26:33;0.40;99.90
5924;DHT22;2987;50.884;14.818;2023-04-03T06:28:59;0.20;99.90
5924;DHT22;2987;50.884;14.818;2023-04-03T06:31:26;0.20;99.90
5924;DHT22;2987;50.884;14.818;2023-04-03T06:33:52;0.20;99.90
5924;DHT22;2987;50.884;14.818;2023-04-03T06:36:20;0.40;99.90
5924;DHT22;2987;50.884;14.818;2023-04-03T06:38:47;0.40;99.90
5924;DHT22;2987;50.884;14.818;2023-04-03T06:41:14;0.40;99.90
5924;DHT22;2987;50.884;14.818;2023-04-03T06:43:43;0.40;99.90
5924;DHT22;2987;50.884;14.818;2023-04-03T06:46:15;0.40;99.90
5924;DHT22;2987;50.884;14.818;2023-04-03T06:48:41;0.40;99.90
5924;DHT22;2987;50.884;14.818;2023-04-03T06:51:20;0.40;99.90
5924;DHT22;2987;50.884;14.818;2023-04-03T06:53:50;0.40;99.90
5924;DHT22;2987;50.884;14.818;2023-04-03T06:56:16;0.40;99.90
5924;DHT22;2987;50.884;14.818;2023-04-03T06:58:43;0.60;99.90
5924;DHT22;2987;50.884;14.818;2023-04-03T07:01:12;0.60;99.90
5924;DHT22;2987;50.884;14.818;2023-04-03T07:03:39;0.70;99.90
5924;DHT22;2987;50.884;14.818;2023-04-03T07:06:07;0.80;99.90
5924;DHT22;2987;50.884;14.818;2023-04-03T07:08:34;0.80;99.90
5924;DHT22;2987;50.884;14.818;2023-04-03T07:11:00;0.80;99.90
5924;DHT22;2987;50.884;14.818;2023-04-03T07:13:27;1.10;99.90
5924;DHT22;2987;50.884;14.818;2023-04-03T07:15:53;0.90;99.90
5924;DHT22;2987;50.884;14.818;2023-04-03T07:18:19;1.00;99.90
5924;DHT22;2987;50.884;14.818;2023-04-03T07:20:45;1.20;99.90
5924;DHT22;2987;50.884;14.818;2023-04-03T07:23:12;0.90;99.90
5924;DHT22;2987;50.884;14.818;2023-04-03T07:25:43;0.80;99.90
5924;DHT22;2987;50.884;14.818;2023-04-03T07:28:13;1.30;99.90
5924;DHT22;2987;50.884;14.818;2023-04-03T07:30:45;1.30;99.90
5924;DHT22;2987;50.884;14.818;2023-04-03T07:33:12;1.30;99.90
5924;DHT22;2987;50.884;14.818;2023-04-03T07:35:39;1.90;99.90
5924;DHT22;2987;50.884;14.818;2023-04-03T07:38:06;1.60;99.90
5924;DHT22;2987;50.884;14.818;2023-04-03T07:40:32;2.10;99.90
5924;DHT22;2987;50.884;14.818;2023-04-03T07:42:59;2.20;99.90
5924;DHT22;2987;50.884;14.818;2023-04-03T07:45:25;2.20;99.90
5924;DHT22;2987;50.884;14.818;2023-04-03T07:47:52;2.20;99.90
5924;DHT22;2987;50.884;14.818;2023-04-03T07:50:19;1.90;99.90
5924;DHT22;2987;50.884;14.818;2023-04-03T07:52:45;2.40;99.90
5924;DHT22;2987;50.884;14.818;2023-04-03T07:55:12;2.00;99.90
5924;DHT22;2987;50.884;14.818;2023-04-03T07:57:38;2.20;99.90
5924;DHT22;2987;50.884;14.818;2023-04-03T08:00:05;2.40;99.90
5924;DHT22;2987;50.884;14.818;2023-04-03T08:02:38;2.20;99.90
5924;DHT22;2987;50.884;14.818;2023-04-03T08:05:04;2.40;99.90
5924;DHT22;2987;50.884;14.818;2023-04-03T08:07:30;2.00;99.90
5924;DHT22;2987;50.884;14.818;2023-04-03T08:09:56;2.40;99.90
5924;DHT22;2987;50.884;14.818;2023-04-03T08:12:23;2.30;99.90
5924;DHT22;2987;50.884;14.818;2023-04-03T08:14:49;2.40;99.90
5924;DHT22;2987;50.884;14.818;2023-04-03T08:17:15;2.40;99.90
5924;DHT22;2987;50.884;14.818;2023-04-03T08:19:41;2.70;99.90
5924;DHT22;2987;50.884;14.818;2023-04-03T08:22:07;2.40;99.90
5924;DHT22;2987;50.884;14.818;2023-04-03T08:24:34;3.20;99.90
5924;DHT22;2987;50.884;14.818;2023-04-03T08:27:00;3.60;99.90
5924;DHT22;2987;50.884;14.818;2023-04-03T08:29:27;3.40;99.90
5924;DHT22;2987;50.884;14.818;2023-04-03T08:31:53;3.30;99.90
5924;DHT22;2987;50.884;14.818;2023-04-03T08:34:20;3.40;99.90
5924;DHT22;2987;50.884;14.818;2023-04-03T08:36:47;3.70;99.90
5924;DHT22;2987;50.884;14.818;2023-04-03T08:39:13;3.70;99.90
5924;DHT22;2987;50.884;14.818;2023-04-03T08:41:42;4.00;99.90
5924;DHT22;2987;50.884;14.818;2023-04-03T08:44:24;4.00;99.90
5924;DHT22;2987;50.884;14.818;2023-04-03T08:52:10;4.00;99.90
5924;DHT22;2987;50.884;14.818;2023-04-03T08:54:50;4.00;99.90
5924;DHT22;2987;50.884;14.818;2023-04-03T08:57:17;3.70;99.90
5924;DHT22;2987;50.884;14.818;2023-04-03T08:59:43;3.30;99.90
5924;DHT22;2987;50.884;14.818;2023-04-03T09:02:24;3.50;99.90
5924;DHT22;2987;50.884;14.818;2023-04-03T09:04:53;3.60;99.90
5924;DHT22;2987;50.884;14.818;2023-04-03T09:07:34;3.80;99.90
5924;DHT22;2987;50.884;14.818;2023-04-03T09:10:02;3.90;99.90
5924;DHT22;2987;50.884;14.818;2023-04-03T09:12:37;4.10;99.90
5924;DHT22;2987;50.884;14.818;2023-04-03T09:15:15;3.90;99.90
5924;DHT22;2987;50.884;14.818;2023-04-03T09:17:59;4.50;99.90
5924;DHT22;2987;50.884;14.818;2023-04-03T09:26:17;5.70;99.90
5924;DHT22;2987;50.884;14.818;2023-04-03T09:31:30;6.60;99.90
5924;DHT22;2987;50.884;14.818;2023-04-03T09:34:05;6.80;99.90
5924;DHT22;2987;50.884;14.818;2023-04-03T09:39:13;6.60;99.90
5924;DHT22;2987;50.884;14.818;2023-04-03T09:41:42;6.70;99.90
5924;DHT22;2987;50.884;14.818;2023-04-03T09:44:25;6.50;99.90
5924;DHT22;2987;50.884;14.818;2023-04-03T09:46:51;6.30;99.90
5924;DHT22;2987;50.884;14.818;2023-04-03T09:49:18;5.80;99.90
5924;DHT22;2987;50.884;14.818;2023-04-03T09:51:45;5.70;99.90
5924;DHT22;2987;50.884;14.818;2023-04-03T09:54:35;5.20;99.90
5924;DHT22;2987;50.884;14.818;2023-04-03T09:57:08;4.90;99.90
5924;DHT22;2987;50.884;14.818;2023-04-03T10:02:17;4.60;99.90
5924;DHT22;2987;50.884;14.818;2023-04-03T10:04:46;4.50;99.90
5924;DHT22;2987;50.884;14.818;2023-04-03T10:07:30;4.50;99.90
5924;DHT22;2987;50.884;14.818;2023-04-03T10:09:58;4.50;99.90
5924;DHT22;2987;50.884;14.818;2023-04-03T10:12:26;4.50;99.90
5924;DHT22;2987;50.884;14.818;2023-04-03T10:14:55;4.60;99.90
5924;DHT22;2987;50.884;14.818;2023-04-03T10:17:32;4.50;99.90
5924;DHT22;2987;50.884;14.818;2023-04-03T10:25:32;4.30;99.90
5924;DHT22;2987;50.884;14.818;2023-04-03T10:28:10;4.80;99.90
5924;DHT22;2987;50.884;14.818;2023-04-03T10:30:52;4.90;99.90
5924;DHT22;2987;50.884;14.818;2023-04-03T10:33:39;5.70;99.90
5924;DHT22;2987;50.884;14.818;2023-04-03T10:36:22;6.30;99.90
5924;DHT22;2987;50.884;14.818;2023-04-03T10:39:18;6.70;99.90
5924;DHT22;2987;50.884;14.818;2023-04-03T10:42:03;6.90;99.90
5924;DHT22;2987;50.884;14.818;2023-04-03T10:50:01;5.90;99.90
5924;DHT22;2987;50.884;14.818;2023-04-03T10:55:31;5.40;99.90
5924;DHT22;2987;50.884;14.818;2023-04-03T10:58:01;5.20;99.90
5924;DHT22;2987;50.884;14.818;2023-04-03T11:03:09;5.20;99.90
5924;DHT22;2987;50.884;14.818;2023-04-03T11:05:48;5.30;99.90
5924;DHT22;2987;50.884;14.818;2023-04-03T11:08:29;5.70;99.90
5924;DHT22;2987;50.884;14.818;2023-04-03T11:11:06;5.20;99.90
5924;DHT22;2987;50.884;14.818;2023-04-03T11:13:39;5.20;99.90
5924;DHT22;2987;50.884;14.818;2023-04-03T11:16:07;5.10;99.90
5924;DHT22;2987;50.884;14.818;2023-04-03T11:18:46;5.40;99.90
5924;DHT22;2987;50.884;14.818;2023-04-03T11:21:31;5.40;99.90
5924;DHT22;2987;50.884;14.818;2023-04-03T11:24:03;5.20;99.90
5924;DHT22;2987;50.884;14.818;2023-04-03T11:26:38;5.40;99.90
5924;DHT22;2987;50.884;14.818;2023-04-03T11:29:11;5.20;99.90
5924;DHT22;2987;50.884;14.818;2023-04-03T11:37:31;5.10;99.90
5924;DHT22;2987;50.884;14.818;2023-04-03T11:40:02;5.00;99.90
5924;DHT22;2987;50.884;14.818;2023-04-03T11:42:40;4.80;99.90
5924;DHT22;2987;50.884;14.818;2023-04-03T11:45:31;4.80;99.90
5924;DHT22;2987;50.884;14.818;2023-04-03T11:48:03;4.90;99.90
5924;DHT22;2987;50.884;14.818;2023-04-03T11:50:47;5.10;99.90
5924;DHT22;2987;50.884;14.818;2023-04-03T11:53:28;5.10;99.90
5924;DHT22;2987;50.884;14.818;2023-04-03T11:55:57;5.10;99.90
5924;DHT22;2987;50.884;14.818;2023-04-03T11:58:27;5.10;99.90
5924;DHT22;2987;50.884;14.818;2023-04-03T12:01:00;5.20;99.90
5924;DHT22;2987;50.884;14.818;2023-04-03T12:03:32;5.20;99.90
5924;DHT22;2987;50.884;14.818;2023-04-03T12:08:47;5.60;99.90
5924;DHT22;2987;50.884;14.818;2023-04-03T12:11:22;5.10;99.90
5924;DHT22;2987;50.884;14.818;2023-04-03T12:14:04;5.30;99.90
5924;DHT22;2987;50.884;14.818;2023-04-03T12:19:35;5.10;99.90
5924;DHT22;2987;50.884;14.818;2023-04-03T12:22:06;5.20;99.90
5924;DHT22;2987;50.884;14.818;2023-04-03T12:24:35;5.40;99.90
5924;DHT22;2987;50.884;14.818;2023-04-03T12:32:50;4.80;99.90
5924;DHT22;2987;50.884;14.818;2023-04-03T12:38:11;5.20;99.90
5924;DHT22;2987;50.884;14.818;2023-04-03T12:40:57;5.30;99.90
5924;DHT22;2987;50.884;14.818;2023-04-03T12:46:19;5.40;99.90
5924;DHT22;2987;50.884;14.818;2023-04-03T12:48:54;5.10;99.90
5924;DHT22;2987;50.884;14.818;2023-04-03T12:51:28;5.20;99.90
5924;DHT22;2987;50.884;14.818;2023-04-03T12:54:04;5.50;99.90
5924;DHT22;2987;50.884;14.818;2023-04-03T12:56:39;5.20;99.90
5924;DHT22;2987;50.884;14.818;2023-04-03T12:59:25;5.60;99.90
5924;DHT22;2987;50.884;14.818;2023-04-03T13:01:57;5.10;99.90
5924;DHT22;2987;50.884;14.818;2023-04-03T13:04:24;5.10;99.90
5924;DHT22;2987;50.884;14.818;2023-04-03T13:06:51;4.80;99.90
5924;DHT22;2987;50.884;14.818;2023-04-03T13:09:26;4.90;99.90
5924;DHT22;2987;50.884;14.818;2023-04-03T13:11:59;5.10;99.90
5924;DHT22;2987;50.884;14.818;2023-04-03T13:14:27;5.20;99.90
5924;DHT22;2987;50.884;14.818;2023-04-03T13:16:58;5.60;99.90
5924;DHT22;2987;50.884;14.818;2023-04-03T13:19:27;5.20;99.90
5924;DHT22;2987;50.884;14.818;2023-04-03T13:24:48;5.20;99.90
5924;DHT22;2987;50.884;14.818;2023-04-03T13:27:15;5.70;99.90
5924;DHT22;2987;50.884;14.818;2023-04-03T13:29:42;5.30;99.90
5924;DHT22;2987;50.884;14.818;2023-04-03T13:32:19;5.70;99.90
5924;DHT22;2987;50.884;14.818;2023-04-03T13:34:47;5.50;99.90
5924;DHT22;2987;50.884;14.818;2023-04-03T13:37:32;5.20;99.90
5924;DHT22;2987;50.884;14.818;2023-04-03T13:42:36;5.10;99.90
5924;DHT22;2987;50.884;14.818;2023-04-03T13:45:23;5.40;99.90
5924;DHT22;2987;50.884;14.818;2023-04-03T13:47:53;5.20;99.90
5924;DHT22;2987;50.884;14.818;2023-04-03T13:50:23;5.40;99.90
5924;DHT22;2987;50.884;14.818;2023-04-03T13:52:55;5.60;99.90
5924;DHT22;2987;50.884;14.818;2023-04-03T13:55:29;5.40;99.90
5924;DHT22;2987;50.884;14.818;2023-04-03T13:58:00;5.60;99.90
5924;DHT22;2987;50.884;14.818;2023-04-03T14:00:45;5.40;99.90
5924;DHT22;2987;50.884;14.818;2023-04-03T14:03:20;5.20;99.90
5924;DHT22;2987;50.884;14.818;2023-04-03T14:05:47;5.40;99.90
5924;DHT22;2987;50.884;14.818;2023-04-03T14:08:14;5.10;99.90
5924;DHT22;2987;50.884;14.818;2023-04-03T14:10:40;5.30;99.90
5924;DHT22;2987;50.884;14.818;2023-04-03T14:13:11;4.80;99.90
5924;DHT22;2987;50.884;14.818;2023-04-03T14:15:39;5.10;99.90
5924;DHT22;2987;50.884;14.818;2023-04-03T14:18:06;5.20;99.90
5924;DHT22;2987;50.884;14.818;2023-04-03T14:20:32;5.10;99.90
5924;DHT22;2987;50.884;14.818;2023-04-03T14:22:58;5.10;99.90
5924;DHT22;2987;50.884;14.818;2023-04-03T14:25:24;5.10;99.90
5924;DHT22;2987;50.884;14.818;2023-04-03T14:27:52;5.40;99.90
5924;DHT22;2987;50.884;14.818;2023-04-03T14:30:30;5.10;99.90
5924;DHT22;2987;50.884;14.818;2023-04-03T14:32:57;5.30;99.90
5924;DHT22;2987;50.884;14.818;2023-04-03T14:35:25;5.10;99.90
5924;DHT22;2987;50.884;14.818;2023-04-03T14:37:53;5.10;99.90
5924;DHT22;2987;50.884;14.818;2023-04-03T14:40:23;5.30;99.90
5924;DHT22;2987;50.884;14.818;2023-04-03T14:42:49;5.20;99.90
5924;DHT22;2987;50.884;14.818;2023-04-03T14:45:17;5.60;99.90
5924;DHT22;2987;50.884;14.818;2023-04-03T14:47:49;5.20;99.90
5924;DHT22;2987;50.884;14.818;2023-04-03T14:50:19;5.40;99.90
5924;DHT22;2987;50.884;14.818;2023-04-03T14:52:51;5.10;99.90
5924;DHT22;2987;50.884;14.818;2023-04-03T14:55:22;5.10;99.90
5924;DHT22;2987;50.884;14.818;2023-04-03T14:57:49;5.10;99.90
5924;DHT22;2987;50.884;14.818;2023-04-03T15:00:18;5.20;99.90
5924;DHT22;2987;50.884;14.818;2023-04-03T15:02:46;5.00;99.90
5924;DHT22;2987;50.884;14.818;2023-04-03T15:05:14;5.10;99.90
5924;DHT22;2987;50.884;14.818;2023-04-03T15:07:43;5.10;99.90
5924;DHT22;2987;50.884;14.818;2023-04-03T15:10:18;5.20;99.90
5924;DHT22;2987;50.884;14.818;2023-04-03T15:12:46;5.30;99.90
5924;DHT22;2987;50.884;14.818;2023-04-03T15:15:13;5.20;99.90
5924;DHT22;2987;50.884;14.818;2023-04-03T15:17:40;5.60;99.90
5924;DHT22;2987;50.884;14.818;2023-04-03T15:20:14;5.20;99.90
5924;DHT22;2987;50.884;14.818;2023-04-03T15:22:40;5.40;99.90
5924;DHT22;2987;50.884;14.818;2023-04-03T15:25:07;5.10;99.90
5924;DHT22;2987;50.884;14.818;2023-04-03T15:27:34;5.30;99.90
5924;DHT22;2987;50.884;14.818;2023-04-03T15:30:00;4.90;99.90
5924;DHT22;2987;50.884;14.818;2023-04-03T15:32:26;5.30;99.90
5924;DHT22;2987;50.884;14.818;2023-04-03T15:34:55;5.20;99.90
5924;DHT22;2987;50.884;14.818;2023-04-03T15:37:21;5.50;99.90
5924;DHT22;2987;50.884;14.818;2023-04-03T15:39:47;5.60;99.90
5924;DHT22;2987;50.884;14.818;2023-04-03T15:42:14;5.70;99.90
5924;DHT22;2987;50.884;14.818;2023-04-03T15:44:40;5.70;99.90
5924;DHT22;2987;50.884;14.818;2023-04-03T15:47:07;5.40;99.90
5924;DHT22;2987;50.884;14.818;2023-04-03T15:49:33;5.10;99.90
5924;DHT22;2987;50.884;14.818;2023-04-03T15:52:00;5.40;99.90
5924;DHT22;2987;50.884;14.818;2023-04-03T15:54:26;5.10;99.90
5924;DHT22;2987;50.884;14.818;2023-04-03T15:56:56;5.30;99.90
5924;DHT22;2987;50.884;14.818;2023-04-03T15:59:23;4.90;99.90
5924;DHT22;2987;50.884;14.818;2023-04-03T16:01:50;4.80;99.90
5924;DHT22;2987;50.884;14.818;2023-04-03T16:04:17;5.00;99.90
5924;DHT22;2987;50.884;14.818;2023-04-03T16:06:44;4.60;99.90
5924;DHT22;2987;50.884;14.818;2023-04-03T16:09:12;4.50;99.90
5924;DHT22;2987;50.884;14.818;2023-04-03T16:11:40;5.00;99.90
5924;DHT22;2987;50.884;14.818;2023-04-03T16:14:07;4.70;99.90
5924;DHT22;2987;50.884;14.818;2023-04-03T16:16:34;4.70;99.90
5924;DHT22;2987;50.884;14.818;2023-04-03T16:19:00;5.00;99.90
5924;DHT22;2987;50.884;14.818;2023-04-03T16:21:27;4.70;99.90
5924;DHT22;2987;50.884;14.818;2023-04-03T16:23:53;4.60;99.90
5924;DHT22;2987;50.884;14.818;2023-04-03T16:26:22;4.80;99.90
5924;DHT22;2987;50.884;14.818;2023-04-03T16:28:48;4.80;99.90
5924;DHT22;2987;50.884;14.818;2023-04-03T16:31:15;4.70;99.90
5924;DHT22;2987;50.884;14.818;2023-04-03T16:33:41;4.50;99.90
5924;DHT22;2987;50.884;14.818;2023-04-03T16:36:07;4.50;99.90
5924;DHT22;2987;50.884;14.818;2023-04-03T16:38:35;4.60;99.90
5924;DHT22;2987;50.884;14.818;2023-04-03T16:41:01;4.50;99.90
5924;DHT22;2987;50.884;14.818;2023-04-03T16:43:31;4.20;99.90
5924;DHT22;2987;50.884;14.818;2023-04-03T16:45:59;4.40;99.90
5924;DHT22;2987;50.884;14.818;2023-04-03T16:48:25;4.30;99.90
5924;DHT22;2987;50.884;14.818;2023-04-03T16:50:51;4.30;99.90
5924;DHT22;2987;50.884;14.818;2023-04-03T16:53:21;4.30;99.90
5924;DHT22;2987;50.884;14.818;2023-04-03T16:55:47;4.20;99.90
5924;DHT22;2987;50.884;14.818;2023-04-03T16:58:14;4.20;99.90
5924;DHT22;2987;50.884;14.818;2023-04-03T17:00:41;4.20;99.90
5924;DHT22;2987;50.884;14.818;2023-04-03T17:03:07;4.20;99.90
5924;DHT22;2987;50.884;14.818;2023-04-03T17:05:33;4.00;99.90
5924;DHT22;2987;50.884;14.818;2023-04-03T17:08:00;4.20;99.90
5924;DHT22;2987;50.884;14.818;2023-04-03T17:10:27;3.90;99.90
5924;DHT22;2987;50.884;14.818;2023-04-03T17:12:53;3.90;99.90
5924;DHT22;2987;50.884;14.818;2023-04-03T17:15:19;4.00;99.90
5924;DHT22;2987;50.884;14.818;2023-04-03T17:17:47;4.00;99.90
5924;DHT22;2987;50.884;14.818;2023-04-03T17:20:15;4.00;99.90
5924;DHT22;2987;50.884;14.818;2023-04-03T17:22:41;4.00;99.90
5924;DHT22;2987;50.884;14.818;2023-04-03T17:25:08;4.00;99.90